Time;durP1;ratioP1;P1;durP2;ratioP2;P2;SDS_P1;SDS_P2;PMS_P1;PMS_P2;Temp;Humidity;BMP_temperature;BMP_pressure;BME280_temperature;BME280_humidity;BME280_pressure;Samples;Min_cycle;Max_cycle;Signal;HPM_P1;HPM_P2
2023/06/23 00:00:13;;;;;;;5.53;4.23;;;;;;;;;;5072664;27;87817;-54
2023/06/23 00:02:41;;;;;;;6.00;3.50;;;;;;;;;;5087730;27;88805;-53
2023/06/23 00:05:11;;;;;;;5.97;3.63;;;;;;;;;;5098406;27;89749;-54
2023/06/23 00:07:39;;;;;;;5.60;3.40;;;;;;;;;;5080283;27;89244;-54
2023/06/23 00:10:10;;;;;;;4.97;3.67;;;;;;;;;;5077394;27;88262;-54
2023/06/23 00:12:41;;;;;;;4.73;3.60;;;;;;;;;;5069111;27;88348;-54
2023/06/23 00:15:11;;;;;;;7.57;3.83;;;;;;;;;;5081611;27;89895;-54
2023/06/23 00:17:41;;;;;;;6.37;3.97;;;;;;;;;;5097978;27;89088;-53
2023/06/23 00:20:12;;;;;;;5.33;2.80;;;;;;;;;;5101769;27;88854;-53
2023/06/23 00:22:41;;;;;;;4.47;3.00;;;;;;;;;;5101911;27;87585;-54
2023/06/23 00:25:10;;;;;;;5.33;3.23;;;;;;;;;;5101798;27;87327;-53
2023/06/23 00:27:39;;;;;;;3.87;2.80;;;;;;;;;;5101702;27;88009;-54
2023/06/23 00:30:08;;;;;;;4.77;3.37;;;;;;;;;;5092421;27;88785;-54
2023/06/23 00:32:38;;;;;;;5.30;3.73;;;;;;;;;;5080139;27;88371;-54
2023/06/23 00:35:07;;;;;;;4.17;2.77;;;;;;;;;;5080963;27;88484;-54
2023/06/23 00:37:37;;;;;;;3.83;2.70;;;;;;;;;;5076106;27;88046;-54
2023/06/23 00:40:09;;;;;;;3.30;2.30;;;;;;;;;;5081967;27;90367;-54
2023/06/23 00:42:44;;;;;;;4.53;3.20;;;;;;;;;;5081907;27;87604;-54
2023/06/23 00:45:13;;;;;;;3.67;2.47;;;;;;;;;;5088829;27;89457;-54
2023/06/23 00:47:44;;;;;;;3.67;2.77;;;;;;;;;;5101334;27;88913;-53
2023/06/23 00:50:14;;;;;;;2.90;2.57;;;;;;;;;;5101654;27;88755;-54
2023/06/23 00:52:50;;;;;;;3.67;2.70;;;;;;;;;;5099812;27;87701;-54
2023/06/23 00:55:20;;;;;;;3.03;2.63;;;;;;;;;;5101702;27;88335;-54
2023/06/23 00:57:48;;;;;;;3.60;2.73;;;;;;;;;;5099139;27;88184;-53
2023/06/23 01:00:18;;;;;;;3.03;2.23;;;;;;;;;;5076382;27;88780;-53
2023/06/23 01:02:49;;;;;;;2.40;2.17;;;;;;;;;;5083718;27;87985;-54
2023/06/23 01:05:18;;;;;;;3.83;2.10;;;;;;;;;;5083902;27;88563;-54
2023/06/23 01:07:48;;;;;;;2.73;2.00;;;;;;;;;;5083319;27;88430;-54
2023/06/23 01:10:17;;;;;;;2.90;1.70;;;;;;;;;;5080045;27;88156;-54
2023/06/23 01:12:46;;;;;;;1.80;1.53;;;;;;;;;;5069042;27;87661;-54
2023/06/23 01:15:16;;;;;;;3.87;2.03;;;;;;;;;;5083635;27;88757;-54
2023/06/23 01:17:45;;;;;;;2.83;1.60;;;;;;;;;;5083678;27;89178;-53
2023/06/23 01:20:21;;;;;;;1.77;1.63;;;;;;;;;;5083170;27;88763;-54
2023/06/23 01:22:54;;;;;;;1.60;1.40;;;;;;;;;;5084371;27;87505;-53
2023/06/23 01:25:23;;;;;;;2.47;1.60;;;;;;;;;;5082767;27;88683;-53
2023/06/23 01:27:54;;;;;;;2.97;1.63;;;;;;;;;;5084722;27;88069;-54
2023/06/23 01:30:26;;;;;;;1.47;1.30;;;;;;;;;;5103670;27;89997;-53
2023/06/23 01:32:56;;;;;;;2.37;1.63;;;;;;;;;;5104363;27;87123;-54
2023/06/23 01:35:26;;;;;;;4.30;1.80;;;;;;;;;;5104186;27;88689;-53
2023/06/23 01:37:57;;;;;;;2.00;1.57;;;;;;;;;;5103314;27;87255;-54
2023/06/23 01:40:26;;;;;;;2.87;1.80;;;;;;;;;;5103570;27;87601;-53
2023/06/23 01:42:57;;;;;;;3.67;1.30;;;;;;;;;;5099124;27;87618;-53
2023/06/23 01:45:28;;;;;;;1.30;1.20;;;;;;;;;;5063440;27;88598;-54
2023/06/23 01:47:58;;;;;;;1.63;1.43;;;;;;;;;;5062892;27;88840;-54
2023/06/23 01:50:27;;;;;;;2.63;1.47;;;;;;;;;;5083087;27;88796;-54
2023/06/23 01:52:56;;;;;;;1.87;1.47;;;;;;;;;;5082864;27;87809;-54
2023/06/23 01:55:24;;;;;;;2.43;1.70;;;;;;;;;;5083063;27;88550;-54
2023/06/23 01:57:53;;;;;;;2.20;1.70;;;;;;;;;;5087334;27;88085;-54
2023/06/23 02:00:22;;;;;;;1.50;1.33;;;;;;;;;;5103873;27;87712;-54
2023/06/23 02:02:53;;;;;;;2.03;1.67;;;;;;;;;;5104347;27;87629;-53
2023/06/23 02:05:22;;;;;;;2.40;1.90;;;;;;;;;;5101565;27;88504;-54
2023/06/23 02:07:51;;;;;;;2.40;1.40;;;;;;;;;;5103922;27;89232;-54
2023/06/23 02:10:20;;;;;;;1.73;1.20;;;;;;;;;;5103983;27;88484;-54
2023/06/23 02:12:49;;;;;;;1.73;1.33;;;;;;;;;;5101423;27;87614;-54
2023/06/23 02:15:17;;;;;;;2.03;1.50;;;;;;;;;;5082715;27;88446;-54
2023/06/23 02:17:46;;;;;;;1.50;1.40;;;;;;;;;;5082162;27;88944;-54
2023/06/23 02:20:16;;;;;;;2.33;1.20;;;;;;;;;;5082496;27;89821;-54
2023/06/23 02:22:46;;;;;;;1.50;1.30;;;;;;;;;;5082842;27;87581;-55
2023/06/23 02:25:14;;;;;;;1.27;1.17;;;;;;;;;;5101901;27;89823;-53
2023/06/23 02:27:43;;;;;;;1.93;1.60;;;;;;;;;;5095332;27;89363;-53
2023/06/23 02:30:12;;;;;;;1.23;1.13;;;;;;;;;;5078237;27;89376;-54
2023/06/23 02:32:40;;;;;;;1.40;1.30;;;;;;;;;;5090358;27;87688;-53
2023/06/23 02:35:09;;;;;;;1.53;1.10;;;;;;;;;;5099259;27;88896;-53
2023/06/23 02:37:40;;;;;;;2.17;1.50;;;;;;;;;;5099411;27;89045;-54
2023/06/23 02:40:10;;;;;;;2.23;1.50;;;;;;;;;;5099293;27;88790;-54
2023/06/23 02:42:41;;;;;;;2.17;1.07;;;;;;;;;;5093218;27;87954;-54
2023/06/23 02:45:11;;;;;;;1.40;1.30;;;;;;;;;;5089581;27;89812;-54
2023/06/23 02:47:40;;;;;;;1.83;1.37;;;;;;;;;;5099704;27;89082;-54
2023/06/23 02:50:11;;;;;;;2.57;1.37;;;;;;;;;;5098426;27;89216;-54
2023/06/23 02:52:44;;;;;;;1.30;1.07;;;;;;;;;;5099368;27;87513;-54
2023/06/23 02:55:13;;;;;;;2.37;1.63;;;;;;;;;;5089161;27;89703;-53
2023/06/23 02:57:42;;;;;;;2.53;1.30;;;;;;;;;;5081347;27;89274;-54
2023/06/23 03:00:16;;;;;;;2.53;1.57;;;;;;;;;;5100009;27;89034;-54
2023/06/23 03:02:45;;;;;;;1.90;1.10;;;;;;;;;;5099936;27;87270;-54
2023/06/23 03:05:14;;;;;;;1.70;1.00;;;;;;;;;;5090141;27;89671;-54
2023/06/23 03:07:44;;;;;;;2.40;1.20;;;;;;;;;;5058415;27;89886;-54
2023/06/23 03:10:12;;;;;;;2.30;1.33;;;;;;;;;;5067023;27;89770;-55
2023/06/23 03:12:40;;;;;;;2.23;1.80;;;;;;;;;;5080162;27;87731;-54
2023/06/23 03:15:09;;;;;;;3.00;2.07;;;;;;;;;;5091895;27;88521;-54
2023/06/23 03:17:38;;;;;;;3.73;2.13;;;;;;;;;;5078787;27;88052;-54
2023/06/23 03:20:08;;;;;;;4.77;2.93;;;;;;;;;;5090502;27;87688;-55
2023/06/23 03:22:38;;;;;;;5.17;3.13;;;;;;;;;;5083897;27;88641;-54
2023/06/23 03:25:10;;;;;;;3.80;3.17;;;;;;;;;;5059036;27;92576;-55
2023/06/23 03:27:39;;;;;;;4.60;3.10;;;;;;;;;;5067801;27;88033;-54
2023/06/23 03:30:08;;;;;;;4.87;3.37;;;;;;;;;;5080648;27;87937;-55
2023/06/23 03:32:38;;;;;;;5.90;3.77;;;;;;;;;;5082204;27;88364;-54
2023/06/23 03:35:08;;;;;;;6.30;3.30;;;;;;;;;;5080568;27;89150;-55
2023/06/23 03:37:37;;;;;;;5.13;3.17;;;;;;;;;;5082055;27;87986;-55
2023/06/23 03:40:06;;;;;;;4.00;2.93;;;;;;;;;;5082194;27;87814;-54
2023/06/23 03:42:37;;;;;;;8.37;3.20;;;;;;;;;;5078680;27;87638;-54
2023/06/23 03:45:05;;;;;;;4.37;2.93;;;;;;;;;;5082071;27;89748;-54
2023/06/23 03:47:34;;;;;;;6.13;2.97;;;;;;;;;;5098717;27;89004;-54
2023/06/23 03:50:04;;;;;;;2.93;2.40;;;;;;;;;;5098691;27;88747;-54
2023/06/23 03:52:33;;;;;;;3.50;2.27;;;;;;;;;;5099018;27;87642;-55
2023/06/23 03:55:01;;;;;;;3.00;2.57;;;;;;;;;;5096221;27;88730;-54
2023/06/23 03:57:31;;;;;;;2.80;2.47;;;;;;;;;;5096064;27;90069;-54
2023/06/23 04:00:01;;;;;;;3.37;2.57;;;;;;;;;;5098715;27;89673;-54
2023/06/23 04:02:30;;;;;;;3.47;2.37;;;;;;;;;;5099119;27;88937;-55
2023/06/23 04:04:59;;;;;;;3.33;2.20;;;;;;;;;;5088718;27;89661;-54
2023/06/23 04:07:27;;;;;;;4.40;2.00;;;;;;;;;;5081275;27;88021;-54
2023/06/23 04:09:56;;;;;;;3.30;2.20;;;;;;;;;;5080734;27;87453;-54
2023/06/23 04:12:24;;;;;;;4.93;2.73;;;;;;;;;;5083376;27;87791;-54
2023/06/23 04:14:53;;;;;;;3.17;2.00;;;;;;;;;;5101399;27;89739;-54
2023/06/23 04:17:25;;;;;;;2.47;1.90;;;;;;;;;;5100813;27;88183;-54
2023/06/23 04:19:55;;;;;;;5.77;2.00;;;;;;;;;;5101473;27;88771;-54
2023/06/23 04:22:24;;;;;;;2.40;2.00;;;;;;;;;;5100967;27;88929;-54
2023/06/23 04:24:52;;;;;;;2.30;1.80;;;;;;;;;;5100963;27;88613;-55
2023/06/23 04:27:21;;;;;;;2.37;2.00;;;;;;;;;;5101004;27;88258;-54
2023/06/23 04:29:49;;;;;;;2.50;1.80;;;;;;;;;;5060394;27;87921;-54
2023/06/23 04:32:18;;;;;;;3.47;1.90;;;;;;;;;;5080843;27;87739;-54
2023/06/23 04:34:48;;;;;;;3.63;3.10;;;;;;;;;;5081088;27;89764;-55
2023/06/23 04:37:20;;;;;;;2.33;1.87;;;;;;;;;;5081245;27;88296;-54
2023/06/23 04:39:50;;;;;;;2.87;1.70;;;;;;;;;;5081177;27;88686;-54
2023/06/23 04:42:18;;;;;;;3.47;1.93;;;;;;;;;;5080171;27;87650;-54
2023/06/23 04:44:49;;;;;;;2.93;2.20;;;;;;;;;;5098799;27;88517;-54
2023/06/23 04:47:18;;;;;;;2.40;1.80;;;;;;;;;;5083938;27;90278;-54
2023/06/23 04:49:47;;;;;;;4.23;1.43;;;;;;;;;;5060453;27;88747;-54
2023/06/23 04:52:16;;;;;;;1.50;1.30;;;;;;;;;;5087713;27;87658;-55
2023/06/23 04:54:45;;;;;;;2.07;1.57;;;;;;;;;;5101374;27;89617;-54
2023/06/23 04:57:14;;;;;;;3.00;1.80;;;;;;;;;;5100499;27;88138;-54
2023/06/23 04:59:43;;;;;;;2.93;1.60;;;;;;;;;;5099501;27;87893;-54
2023/06/23 05:02:12;;;;;;;1.40;1.30;;;;;;;;;;5101750;27;87559;-54
2023/06/23 05:04:41;;;;;;;2.03;1.40;;;;;;;;;;5100901;27;87427;-54
2023/06/23 05:07:10;;;;;;;1.60;1.50;;;;;;;;;;5103556;27;89123;-54
2023/06/23 05:09:40;;;;;;;3.87;1.80;;;;;;;;;;5086093;27;87921;-54
2023/06/23 05:12:09;;;;;;;2.27;2.03;;;;;;;;;;5100707;27;88105;-54
2023/06/23 05:14:37;;;;;;;3.33;2.27;;;;;;;;;;5088676;27;89195;-55
2023/06/23 05:17:06;;;;;;;3.90;2.60;;;;;;;;;;5084686;27;87688;-54
2023/06/23 05:19:36;;;;;;;3.07;2.67;;;;;;;;;;5088477;27;87921;-54
2023/06/23 05:22:08;;;;;;;4.97;2.93;;;;;;;;;;5081055;27;87367;-54
2023/06/23 05:24:37;;;;;;;4.40;2.80;;;;;;;;;;5060321;27;89668;-54
2023/06/23 05:27:08;;;;;;;4.63;3.10;;;;;;;;;;5067743;27;87877;-54
2023/06/23 05:29:37;;;;;;;4.90;3.33;;;;;;;;;;5080824;27;89136;-54
2023/06/23 05:32:06;;;;;;;6.07;4.10;;;;;;;;;;5080710;27;88178;-54
2023/06/23 05:34:34;;;;;;;4.63;3.40;;;;;;;;;;5080487;27;87990;-54
2023/06/23 05:37:03;;;;;;;7.60;4.00;;;;;;;;;;5080178;27;90169;-54
2023/06/23 05:39:31;;;;;;;6.47;4.50;;;;;;;;;;5080677;27;89641;-54
2023/06/23 05:42:00;;;;;;;5.53;3.73;;;;;;;;;;5080699;27;87624;-54
2023/06/23 05:44:30;;;;;;;7.23;4.00;;;;;;;;;;5079914;27;89621;-54
2023/06/23 05:46:58;;;;;;;5.90;4.20;;;;;;;;;;5080755;27;88150;-54
2023/06/23 05:49:27;;;;;;;6.57;4.40;;;;;;;;;;5079543;27;88062;-54
2023/06/23 05:51:57;;;;;;;6.40;4.17;;;;;;;;;;5084607;27;88499;-55
2023/06/23 05:54:27;;;;;;;8.37;4.83;;;;;;;;;;5085893;27;89641;-54
2023/06/23 05:56:57;;;;;;;9.80;5.83;;;;;;;;;;5090212;27;87507;-55
2023/06/23 05:59:27;;;;;;;9.43;5.07;;;;;;;;;;5080234;27;87966;-54
2023/06/23 06:01:57;;;;;;;8.53;5.40;;;;;;;;;;5079208;27;87932;-54
2023/06/23 06:04:26;;;;;;;6.70;4.53;;;;;;;;;;5081460;27;89673;-54
2023/06/23 06:06:55;;;;;;;5.43;3.93;;;;;;;;;;5085589;27;88264;-55
2023/06/23 06:09:23;;;;;;;8.10;4.20;;;;;;;;;;5087321;27;87762;-55
2023/06/23 06:11:52;;;;;;;5.23;3.80;;;;;;;;;;5100127;27;87761;-55
2023/06/23 06:14:21;;;;;;;9.77;3.70;;;;;;;;;;5091393;27;89846;-55
2023/06/23 06:16:49;;;;;;;7.57;3.93;;;;;;;;;;5079381;27;89185;-56
2023/06/23 06:19:20;;;;;;;7.50;4.33;;;;;;;;;;5080358;27;87832;-55
2023/06/23 06:21:48;;;;;;;7.37;3.73;;;;;;;;;;5096893;27;87561;-55
2023/06/23 06:24:17;;;;;;;6.37;4.20;;;;;;;;;;5100021;27;88603;-55
2023/06/23 06:26:46;;;;;;;5.10;3.37;;;;;;;;;;5098725;27;89062;-55
2023/06/23 06:29:14;;;;;;;6.50;4.07;;;;;;;;;;5097940;27;89952;-56
2023/06/23 06:31:44;;;;;;;6.37;3.60;;;;;;;;;;5099468;27;87677;-55
2023/06/23 06:34:13;;;;;;;7.77;4.43;;;;;;;;;;5080392;27;89356;-54
2023/06/23 06:36:43;;;;;;;9.00;3.93;;;;;;;;;;5079693;27;88879;-55
2023/06/23 06:39:11;;;;;;;7.57;4.27;;;;;;;;;;5078786;27;88015;-55
2023/06/23 06:41:40;;;;;;;5.93;3.77;;;;;;;;;;5074376;27;87585;-55
2023/06/23 06:44:08;;;;;;;7.50;4.53;;;;;;;;;;5078834;27;89457;-54
2023/06/23 06:46:38;;;;;;;5.40;3.37;;;;;;;;;;5078873;27;87513;-55
2023/06/23 06:49:06;;;;;;;4.90;2.87;;;;;;;;;;5079494;27;89204;-55
2023/06/23 06:51:35;;;;;;;4.77;3.40;;;;;;;;;;5073596;27;88763;-54
2023/06/23 06:54:05;;;;;;;5.37;3.37;;;;;;;;;;5079281;27;87446;-55
2023/06/23 06:56:33;;;;;;;4.50;3.20;;;;;;;;;;5078902;27;87687;-55
2023/06/23 06:59:02;;;;;;;5.97;3.90;;;;;;;;;;5079274;27;88855;-55
2023/06/23 07:01:30;;;;;;;3.53;2.70;;;;;;;;;;5073615;27;88199;-55
2023/06/23 07:03:59;;;;;;;3.80;2.67;;;;;;;;;;5064634;27;89586;-55
2023/06/23 07:06:27;;;;;;;5.13;3.40;;;;;;;;;;5064184;27;90398;-55
2023/06/23 07:08:56;;;;;;;6.40;3.10;;;;;;;;;;5058914;27;87697;-55
2023/06/23 07:11:25;;;;;;;4.50;2.77;;;;;;;;;;5058860;27;87579;-55
2023/06/23 07:13:54;;;;;;;2.97;2.10;;;;;;;;;;5059926;27;89285;-56
2023/06/23 07:16:22;;;;;;;6.67;3.60;;;;;;;;;;5059217;27;89187;-55
2023/06/23 07:18:51;;;;;;;6.47;3.60;;;;;;;;;;5058575;27;89747;-55
2023/06/23 07:21:19;;;;;;;6.77;2.83;;;;;;;;;;5058401;27;88111;-55
2023/06/23 07:23:48;;;;;;;2.50;2.23;;;;;;;;;;5058390;27;89789;-55
2023/06/23 07:26:16;;;;;;;3.97;2.07;;;;;;;;;;5058381;27;89424;-55
2023/06/23 07:28:46;;;;;;;2.80;1.83;;;;;;;;;;5057658;27;87844;-55
2023/06/23 07:31:14;;;;;;;3.13;2.27;;;;;;;;;;5059016;27;87914;-54
2023/06/23 07:33:43;;;;;;;2.50;1.90;;;;;;;;;;5058450;27;89646;-54
2023/06/23 07:36:12;;;;;;;3.13;2.47;;;;;;;;;;5057612;27;88812;-55
2023/06/23 07:38:40;;;;;;;5.73;2.57;;;;;;;;;;5057731;27;88695;-56
2023/06/23 07:41:08;;;;;;;3.83;2.10;;;;;;;;;;5061145;27;88163;-55
2023/06/23 07:43:40;;;;;;;4.67;1.87;;;;;;;;;;5078365;27;89633;-55
2023/06/23 07:46:10;;;;;;;1.83;1.50;;;;;;;;;;5078515;27;88357;-55
2023/06/23 07:48:39;;;;;;;2.67;1.73;;;;;;;;;;5078574;27;88923;-55
2023/06/23 07:51:07;;;;;;;2.50;1.87;;;;;;;;;;5078366;27;87560;-55
2023/06/23 07:53:36;;;;;;;2.40;1.67;;;;;;;;;;5077462;27;88410;-55
2023/06/23 07:56:05;;;;;;;2.43;1.50;;;;;;;;;;5078089;27;89099;-55
2023/06/23 07:58:33;;;;;;;2.90;1.87;;;;;;;;;;5073167;27;88822;-55
2023/06/23 08:01:02;;;;;;;2.30;1.90;;;;;;;;;;5078677;27;87294;-55
2023/06/23 08:03:32;;;;;;;1.60;1.20;;;;;;;;;;5077475;27;88388;-55
2023/06/23 08:06:01;;;;;;;1.57;1.47;;;;;;;;;;5077749;27;88050;-55
2023/06/23 08:08:29;;;;;;;2.00;1.50;;;;;;;;;;5077648;27;89933;-55
2023/06/23 08:10:58;;;;;;;1.70;1.50;;;;;;;;;;5078167;27;88062;-55
2023/06/23 08:13:26;;;;;;;2.80;1.40;;;;;;;;;;5077693;27;89736;-55
2023/06/23 08:15:54;;;;;;;1.83;1.50;;;;;;;;;;5072114;27;87981;-55
2023/06/23 08:18:23;;;;;;;3.17;1.70;;;;;;;;;;5077612;27;88784;-55
2023/06/23 08:20:54;;;;;;;1.93;1.20;;;;;;;;;;5077595;27;87623;-55
2023/06/23 08:23:23;;;;;;;1.90;1.30;;;;;;;;;;5077890;27;89651;-55
2023/06/23 08:25:51;;;;;;;1.80;1.30;;;;;;;;;;5077844;27;88289;-54
2023/06/23 08:28:20;;;;;;;1.90;1.20;;;;;;;;;;5077729;27;88795;-55
2023/06/23 08:30:48;;;;;;;1.57;1.20;;;;;;;;;;5077615;27;88083;-55
2023/06/23 08:33:17;;;;;;;2.17;1.30;;;;;;;;;;5077732;27;89435;-54
2023/06/23 08:35:45;;;;;;;2.70;1.80;;;;;;;;;;5077347;27;89286;-55
2023/06/23 08:38:16;;;;;;;1.93;1.50;;;;;;;;;;5077025;27;87766;-55
2023/06/23 08:40:45;;;;;;;2.53;1.73;;;;;;;;;;5078644;27;87679;-55
2023/06/23 08:43:14;;;;;;;2.80;1.90;;;;;;;;;;5081100;27;88690;-54
2023/06/23 08:45:43;;;;;;;3.03;1.67;;;;;;;;;;5080774;27;89281;-55
2023/06/23 08:48:11;;;;;;;2.60;2.17;;;;;;;;;;5080867;27;87506;-55
2023/06/23 08:50:40;;;;;;;2.83;1.93;;;;;;;;;;5080940;27;87569;-56
2023/06/23 08:53:10;;;;;;;2.53;2.00;;;;;;;;;;5080973;27;88604;-55
2023/06/23 08:55:40;;;;;;;2.77;2.03;;;;;;;;;;5080393;27;90102;-55
2023/06/23 08:58:09;;;;;;;2.87;2.10;;;;;;;;;;5080363;27;90447;-55
2023/06/23 09:00:38;;;;;;;2.50;2.00;;;;;;;;;;5081202;27;87601;-55
2023/06/23 09:03:07;;;;;;;3.00;2.07;;;;;;;;;;5081376;27;90479;-55
2023/06/23 09:05:35;;;;;;;2.33;1.80;;;;;;;;;;5080887;27;89064;-55
2023/06/23 09:08:04;;;;;;;3.23;2.20;;;;;;;;;;5081192;27;87485;-55
2023/06/23 09:10:32;;;;;;;3.67;2.27;;;;;;;;;;5080987;27;87754;-55
2023/06/23 09:13:14;;;;;;;2.13;1.90;;;;;;;;;;5081249;27;88516;-56
2023/06/23 09:15:43;;;;;;;2.83;2.03;;;;;;;;;;5080492;27;89279;-54
2023/06/23 09:18:18;;;;;;;2.87;1.87;;;;;;;;;;5080149;27;89081;-55
2023/06/23 09:20:47;;;;;;;2.83;2.10;;;;;;;;;;5079900;27;87903;-55
2023/06/23 09:23:16;;;;;;;4.37;2.40;;;;;;;;;;5080372;27;89708;-55
2023/06/23 09:25:45;;;;;;;2.80;2.47;;;;;;;;;;5080260;27;88112;-55
2023/06/23 09:28:24;;;;;;;5.00;2.87;;;;;;;;;;5081073;27;88495;-55
2023/06/23 09:30:53;;;;;;;3.90;2.50;;;;;;;;;;5081177;27;87690;-55
2023/06/23 09:33:21;;;;;;;4.90;2.27;;;;;;;;;;5080407;27;88544;-54
2023/06/23 09:35:50;;;;;;;3.77;2.30;;;;;;;;;;5080651;27;89126;-55
2023/06/23 09:38:19;;;;;;;4.57;2.60;;;;;;;;;;5080714;27;88865;-54
2023/06/23 09:40:47;;;;;;;5.03;2.47;;;;;;;;;;5080822;27;87686;-55
2023/06/23 09:43:16;;;;;;;3.80;3.13;;;;;;;;;;5080096;27;88554;-54
2023/06/23 09:45:47;;;;;;;5.17;2.53;;;;;;;;;;5079797;27;90007;-54
2023/06/23 09:48:19;;;;;;;2.93;2.30;;;;;;;;;;5080161;27;89735;-55
2023/06/23 09:50:47;;;;;;;3.30;2.50;;;;;;;;;;5080283;27;88163;-55
2023/06/23 09:53:16;;;;;;;3.77;2.63;;;;;;;;;;5079866;27;89786;-55
2023/06/23 09:55:46;;;;;;;3.90;2.70;;;;;;;;;;5080028;27;89236;-55
2023/06/23 09:58:14;;;;;;;4.10;2.90;;;;;;;;;;5080042;27;89045;-55
2023/06/23 10:00:43;;;;;;;6.63;3.30;;;;;;;;;;5081167;27;87598;-55
2023/06/23 10:03:13;;;;;;;3.53;2.80;;;;;;;;;;5079983;27;89831;-55
2023/06/23 10:05:41;;;;;;;4.47;2.73;;;;;;;;;;5079841;27;87581;-54
2023/06/23 10:08:10;;;;;;;4.23;2.77;;;;;;;;;;5079544;27;88999;-55
2023/06/23 10:10:43;;;;;;;4.23;2.80;;;;;;;;;;5079915;27;87865;-55
2023/06/23 10:13:11;;;;;;;3.37;2.57;;;;;;;;;;5079331;27;89693;-55
2023/06/23 10:15:41;;;;;;;4.87;2.70;;;;;;;;;;5079974;27;89085;-55
2023/06/23 10:18:11;;;;;;;6.80;3.17;;;;;;;;;;5078804;27;89059;-55
2023/06/23 10:20:41;;;;;;;5.33;2.50;;;;;;;;;;5080275;27;87651;-55
2023/06/23 10:23:10;;;;;;;2.83;2.27;;;;;;;;;;5079220;27;88583;-55
2023/06/23 10:25:39;;;;;;;3.40;2.40;;;;;;;;;;5079305;27;87983;-55
2023/06/23 10:28:08;;;;;;;3.67;2.57;;;;;;;;;;5078890;27;87544;-56
2023/06/23 10:30:36;;;;;;;2.63;1.90;;;;;;;;;;5079856;27;87684;-55
2023/06/23 10:33:05;;;;;;;3.47;1.97;;;;;;;;;;5078949;27;88741;-55
2023/06/23 10:35:33;;;;;;;3.50;2.00;;;;;;;;;;5078684;27;89212;-54
2023/06/23 10:38:04;;;;;;;2.53;2.00;;;;;;;;;;5079390;27;89856;-55
2023/06/23 10:40:35;;;;;;;2.67;1.93;;;;;;;;;;5079916;27;87606;-55
2023/06/23 10:43:03;;;;;;;6.17;2.23;;;;;;;;;;5079817;27;89508;-55
2023/06/23 10:45:32;;;;;;;4.07;2.07;;;;;;;;;;5079462;27;88256;-55
2023/06/23 10:48:01;;;;;;;3.67;2.30;;;;;;;;;;5079231;27;89476;-55
2023/06/23 10:50:30;;;;;;;3.03;2.20;;;;;;;;;;5074725;27;88046;-55
2023/06/23 10:53:10;;;;;;;1.97;1.53;;;;;;;;;;5079668;27;89710;-55
2023/06/23 10:55:39;;;;;;;2.17;1.90;;;;;;;;;;5079555;27;89281;-55
2023/06/23 10:58:17;;;;;;;1.90;1.80;;;;;;;;;;5078790;27;87512;-56
2023/06/23 11:00:46;;;;;;;2.73;1.90;;;;;;;;;;5077949;27;87952;-56
2023/06/23 11:03:30;;;;;;;2.47;1.80;;;;;;;;;;5077672;27;88617;-55
2023/06/23 11:05:59;;;;;;;2.23;1.90;;;;;;;;;;5077578;27;89076;-55
2023/06/23 11:08:32;;;;;;;2.87;1.80;;;;;;;;;;5078890;27;88973;-55
2023/06/23 11:11:02;;;;;;;3.40;1.67;;;;;;;;;;5078613;27;87497;-54
2023/06/23 11:13:38;;;;;;;4.13;1.90;;;;;;;;;;5078684;27;89809;-55
2023/06/23 11:16:06;;;;;;;3.43;2.13;;;;;;;;;;5068851;27;88571;-55
2023/06/23 11:18:35;;;;;;;2.07;1.53;;;;;;;;;;5071088;27;87735;-54
2023/06/23 11:21:04;;;;;;;2.00;1.53;;;;;;;;;;5078096;27;87399;-55
2023/06/23 11:23:34;;;;;;;3.00;1.63;;;;;;;;;;5057312;27;88506;-55
2023/06/23 11:26:02;;;;;;;2.23;1.50;;;;;;;;;;5060939;27;90378;-54
2023/06/23 11:28:33;;;;;;;1.57;1.47;;;;;;;;;;5077119;27;89845;-55
2023/06/23 11:31:08;;;;;;;3.07;1.90;;;;;;;;;;5078049;27;87552;-55
2023/06/23 11:33:40;;;;;;;5.27;2.43;;;;;;;;;;5077998;27;89522;-55
2023/06/23 11:36:09;;;;;;;2.83;2.03;;;;;;;;;;5078133;27;87950;-55
2023/06/23 11:38:39;;;;;;;3.57;1.87;;;;;;;;;;5078421;27;87556;-54
2023/06/23 11:41:07;;;;;;;3.53;1.93;;;;;;;;;;5078656;27;87449;-55
2023/06/23 11:43:38;;;;;;;4.70;2.03;;;;;;;;;;5078936;27;88562;-55
2023/06/23 11:46:07;;;;;;;2.10;1.70;;;;;;;;;;5078165;27;89025;-55
2023/06/23 11:48:37;;;;;;;3.67;2.07;;;;;;;;;;5078153;27;91768;-55
2023/06/23 11:51:06;;;;;;;4.03;1.87;;;;;;;;;;5078439;27;88112;-55
2023/06/23 11:53:35;;;;;;;3.17;2.10;;;;;;;;;;5077581;27;89691;-55
2023/06/23 11:56:06;;;;;;;3.00;2.13;;;;;;;;;;5077871;27;88003;-55
2023/06/23 11:58:34;;;;;;;3.70;1.77;;;;;;;;;;5078021;27;88921;-55
2023/06/23 12:01:04;;;;;;;3.30;1.97;;;;;;;;;;5078640;27;87702;-55
2023/06/23 12:03:33;;;;;;;2.20;1.53;;;;;;;;;;5078529;27;89554;-55
2023/06/23 12:06:02;;;;;;;3.77;1.50;;;;;;;;;;5078752;27;89029;-54
2023/06/23 12:08:30;;;;;;;2.07;1.40;;;;;;;;;;5078141;27;87691;-55
2023/06/23 12:10:58;;;;;;;4.57;1.97;;;;;;;;;;5078245;27;87632;-55
2023/06/23 12:13:28;;;;;;;2.10;1.77;;;;;;;;;;5077823;27;88622;-55
2023/06/23 12:15:57;;;;;;;6.03;1.47;;;;;;;;;;5080157;27;87987;-55
2023/06/23 12:18:26;;;;;;;2.80;1.40;;;;;;;;;;5081669;27;89742;-54
2023/06/23 12:20:55;;;;;;;2.80;1.47;;;;;;;;;;5081807;27;88025;-55
2023/06/23 12:23:23;;;;;;;4.43;1.93;;;;;;;;;;5081577;27;89487;-55
2023/06/23 12:25:52;;;;;;;2.67;1.53;;;;;;;;;;5081396;27;89023;-54
2023/06/23 12:28:21;;;;;;;3.67;1.90;;;;;;;;;;5081877;27;88670;-54
2023/06/23 12:30:51;;;;;;;2.33;1.47;;;;;;;;;;5082789;27;88113;-55
2023/06/23 12:33:21;;;;;;;3.33;1.80;;;;;;;;;;5082402;27;88531;-55
2023/06/23 12:35:57;;;;;;;2.63;1.87;;;;;;;;;;5080795;27;89185;-54
2023/06/23 12:38:26;;;;;;;3.10;1.63;;;;;;;;;;5080814;27;88828;-55
2023/06/23 12:40:54;;;;;;;2.60;1.80;;;;;;;;;;5080427;27;88609;-55
2023/06/23 12:43:23;;;;;;;3.00;1.90;;;;;;;;;;5081039;27;90470;-55
2023/06/23 12:45:55;;;;;;;2.80;1.87;;;;;;;;;;5081405;27;89157;-55
2023/06/23 12:48:23;;;;;;;1.67;1.27;;;;;;;;;;5080969;27;88930;-55
2023/06/23 12:50:54;;;;;;;2.03;1.30;;;;;;;;;;5081282;27;87557;-55
2023/06/23 12:53:25;;;;;;;5.53;1.30;;;;;;;;;;5081209;27;88738;-54
2023/06/23 12:55:53;;;;;;;2.27;1.60;;;;;;;;;;5081334;27;88338;-55
2023/06/23 12:58:22;;;;;;;2.47;1.30;;;;;;;;;;5080421;27;89345;-55
2023/06/23 13:00:50;;;;;;;1.73;1.53;;;;;;;;;;5081029;27;87623;-54
2023/06/23 13:03:20;;;;;;;2.77;1.30;;;;;;;;;;5080782;27;88270;-55
2023/06/23 13:05:49;;;;;;;3.17;1.57;;;;;;;;;;5080457;27;88761;-54
2023/06/23 13:08:17;;;;;;;1.90;1.70;;;;;;;;;;5080282;27;89734;-55
2023/06/23 13:10:46;;;;;;;2.83;1.30;;;;;;;;;;5081129;27;87467;-54
2023/06/23 13:13:14;;;;;;;3.60;1.23;;;;;;;;;;5080073;27;89898;-55
2023/06/23 13:15:43;;;;;;;1.47;1.33;;;;;;;;;;5080926;27;87848;-55
2023/06/23 13:18:11;;;;;;;2.70;1.83;;;;;;;;;;5081552;27;88943;-55
2023/06/23 13:20:41;;;;;;;2.37;1.70;;;;;;;;;;5081172;27;87756;-55
2023/06/23 13:23:10;;;;;;;2.73;1.40;;;;;;;;;;5081086;27;89876;-55
2023/06/23 13:25:38;;;;;;;1.63;1.17;;;;;;;;;;5080588;27;88996;-55
2023/06/23 13:28:07;;;;;;;1.70;1.33;;;;;;;;;;5079947;27;88891;-54
2023/06/23 13:30:35;;;;;;;1.90;1.50;;;;;;;;;;5080964;27;88132;-55
2023/06/23 13:33:04;;;;;;;2.07;1.70;;;;;;;;;;5079686;27;89899;-54
2023/06/23 13:35:34;;;;;;;1.67;1.10;;;;;;;;;;5080077;27;87529;-56
2023/06/23 13:38:04;;;;;;;1.77;1.00;;;;;;;;;;5080380;27;88738;-55
2023/06/23 13:40:33;;;;;;;1.10;1.00;;;;;;;;;;5080404;27;88171;-55
2023/06/23 13:43:01;;;;;;;2.27;1.23;;;;;;;;;;5080101;27;88729;-54
2023/06/23 13:45:30;;;;;;;1.50;1.20;;;;;;;;;;5079723;27;88315;-56
2023/06/23 13:47:59;;;;;;;1.00;0.90;;;;;;;;;;5080695;27;87768;-56
2023/06/23 13:50:29;;;;;;;2.13;1.30;;;;;;;;;;5080167;27;87759;-54
2023/06/23 13:52:57;;;;;;;2.27;1.00;;;;;;;;;;5080349;27;88437;-55
2023/06/23 13:55:27;;;;;;;1.90;0.90;;;;;;;;;;5079681;27;89262;-55
2023/06/23 13:57:56;;;;;;;2.23;1.00;;;;;;;;;;5079174;27;88833;-55
2023/06/23 14:00:26;;;;;;;3.70;1.10;;;;;;;;;;5080521;27;87651;-55
2023/06/23 14:02:54;;;;;;;1.63;1.00;;;;;;;;;;5079509;27;89683;-55
2023/06/23 14:05:23;;;;;;;1.53;1.07;;;;;;;;;;5080250;27;87972;-55
2023/06/23 14:07:52;;;;;;;1.23;1.10;;;;;;;;;;5080241;27;88927;-54
2023/06/23 14:10:20;;;;;;;1.00;0.90;;;;;;;;;;5079727;27;87685;-54
2023/06/23 14:12:52;;;;;;;1.23;0.80;;;;;;;;;;5079674;27;89804;-54
2023/06/23 14:15:20;;;;;;;1.87;1.50;;;;;;;;;;5079863;27;88105;-55
2023/06/23 14:17:49;;;;;;;2.07;1.50;;;;;;;;;;5079187;27;88745;-55
2023/06/23 14:20:17;;;;;;;1.27;0.97;;;;;;;;;;5078893;27;88558;-55
2023/06/23 14:22:46;;;;;;;1.93;1.10;;;;;;;;;;5079488;27;89532;-54
2023/06/23 14:25:14;;;;;;;2.23;1.60;;;;;;;;;;5079124;27;87988;-55
2023/06/23 14:27:43;;;;;;;1.70;1.57;;;;;;;;;;5079901;27;87903;-55
2023/06/23 14:30:13;;;;;;;1.50;1.17;;;;;;;;;;5080131;27;87731;-55
2023/06/23 14:32:48;;;;;;;1.50;1.17;;;;;;;;;;5079762;27;89461;-58
2023/06/23 14:35:17;;;;;;;1.60;1.13;;;;;;;;;;5076054;27;88722;-54
2023/06/23 14:37:45;;;;;;;2.20;1.10;;;;;;;;;;5083050;27;87764;-55
2023/06/23 14:40:14;;;;;;;1.90;1.40;;;;;;;;;;5082746;27;87655;-54
2023/06/23 14:42:43;;;;;;;3.67;1.40;;;;;;;;;;5082742;27;88961;-55
2023/06/23 14:45:13;;;;;;;2.20;1.27;;;;;;;;;;5082418;27;89988;-55
2023/06/23 14:47:41;;;;;;;2.47;1.50;;;;;;;;;;5082595;27;88881;-55
2023/06/23 14:50:10;;;;;;;1.67;1.40;;;;;;;;;;5082156;27;87672;-56
2023/06/23 14:52:39;;;;;;;3.67;1.53;;;;;;;;;;5082753;27;90063;-54
2023/06/23 14:55:07;;;;;;;1.97;1.50;;;;;;;;;;5081564;27;89325;-55